createdAt,value
2019-05-30T00:00:09.971Z,1010.56
2019-05-30T00:00:59.965Z,1010.57
2019-05-30T00:02:00.463Z,1010.59
2019-05-30T00:03:00.257Z,1010.55
2019-05-30T00:04:00.316Z,1010.56
2019-05-30T00:05:00.274Z,1010.51
2019-05-30T00:06:00.439Z,1010.51
2019-05-30T00:07:00.424Z,1010.55
2019-05-30T00:08:00.221Z,1010.54
2019-05-30T00:08:59.093Z,1010.51
2019-05-30T00:09:59.071Z,1010.47
2019-05-30T00:10:59.051Z,1010.49
2019-05-30T00:11:59.028Z,1010.48
2019-05-30T00:12:59.006Z,1010.48
2019-05-30T00:13:58.982Z,1010.47
2019-05-30T00:14:58.960Z,1010.48
2019-05-30T00:15:58.939Z,1010.51
2019-05-30T00:16:58.920Z,1010.49
2019-05-30T00:17:58.896Z,1010.5
2019-05-30T00:18:58.874Z,1010.47
2019-05-30T00:19:58.873Z,1010.5
2019-05-30T00:20:58.831Z,1010.55
2019-05-30T00:21:58.814Z,1010.52
2019-05-30T00:22:58.887Z,1010.51
2019-05-30T00:23:59.844Z,1010.54
2019-05-30T00:24:59.824Z,1010.51
2019-05-30T00:25:59.131Z,1010.49
2019-05-30T00:26:58.698Z,1010.52
2019-05-30T00:27:59.152Z,1010.49
2019-05-30T00:28:58.655Z,1010.52
2019-05-30T00:29:59.282Z,1010.51
2019-05-30T00:30:58.609Z,1010.52
2019-05-30T00:31:59.375Z,1010.5
2019-05-30T00:32:58.909Z,1010.48
2019-05-30T00:33:59.541Z,1010.49
2019-05-30T00:34:59.579Z,1010.51
2019-05-30T00:35:59.729Z,1010.51
2019-05-30T00:36:59.734Z,1010.47
2019-05-30T00:37:59.642Z,1010.42
2019-05-30T00:38:59.670Z,1010.41
2019-05-30T00:39:58.415Z,1010.43
2019-05-30T00:40:58.394Z,1010.42
2019-05-30T00:41:58.373Z,1010.42
2019-05-30T00:42:58.351Z,1010.43
2019-05-30T00:43:58.342Z,1010.44
2019-05-30T00:44:58.314Z,1010.44
2019-05-30T00:45:58.285Z,1010.43
2019-05-30T00:46:58.263Z,1010.44
2019-05-30T00:47:58.243Z,1010.42
2019-05-30T00:48:58.283Z,1010.47
2019-05-30T00:49:58.226Z,1010.46
2019-05-30T00:50:58.315Z,1010.49
2019-05-30T00:51:58.403Z,1010.47
2019-05-30T00:52:58.794Z,1010.45
2019-05-30T00:53:58.536Z,1010.46
2019-05-30T00:54:58.431Z,1010.44
2019-05-30T00:55:58.544Z,1010.43
2019-05-30T00:56:58.557Z,1010.43
2019-05-30T00:57:58.490Z,1010.45
2019-05-30T00:58:58.634Z,1010.44
2019-05-30T00:59:58.741Z,1010.42
2019-05-30T01:00:58.975Z,1010.43
2019-05-30T01:01:58.531Z,1010.44
2019-05-30T01:02:59.820Z,1010.42
2019-05-30T01:03:58.674Z,1010.45
2019-05-30T01:04:58.851Z,1010.42
2019-05-30T01:05:58.692Z,1010.41
2019-05-30T01:06:58.926Z,1010.4
2019-05-30T01:07:58.745Z,1010.39
2019-05-30T01:08:59.049Z,1010.41
2019-05-30T01:09:59.094Z,1010.42
2019-05-30T01:10:58.872Z,1010.4
2019-05-30T01:11:59.017Z,1010.38
2019-05-30T01:12:59.751Z,1010.38
2019-05-30T01:13:58.919Z,1010.41
2019-05-30T01:14:58.871Z,1010.39
2019-05-30T01:15:58.844Z,1010.39
2019-05-30T01:16:58.902Z,1010.36
2019-05-30T01:17:58.700Z,1010.38
2019-05-30T01:18:57.583Z,1010.4
2019-05-30T01:19:57.562Z,1010.38
2019-05-30T01:20:57.540Z,1010.36
2019-05-30T01:21:57.523Z,1010.35
2019-05-30T01:22:57.498Z,1010.36
2019-05-30T01:23:57.478Z,1010.36
2019-05-30T01:24:57.457Z,1010.35
2019-05-30T01:25:57.435Z,1010.36
2019-05-30T01:26:57.418Z,1010.39
2019-05-30T01:27:57.407Z,1010.36
2019-05-30T01:28:57.379Z,1010.36
2019-05-30T01:29:57.372Z,1010.4
2019-05-30T01:31:02.293Z,1010.34
2019-05-30T01:31:57.423Z,1010.4
2019-05-30T01:32:57.638Z,1010.4
2019-05-30T01:33:57.493Z,1010.42
2019-05-30T01:34:57.571Z,1010.43
2019-05-30T01:35:57.754Z,1010.4
2019-05-30T01:36:57.567Z,1010.43
2019-05-30T01:37:57.552Z,1010.42
2019-05-30T01:38:57.662Z,1010.42
2019-05-30T01:39:57.661Z,1010.46
2019-05-30T01:40:57.669Z,1010.42
2019-05-30T01:41:57.707Z,1010.43
2019-05-30T01:42:57.862Z,1010.43
2019-05-30T01:43:57.701Z,1010.43
2019-05-30T01:44:58.036Z,1010.47
2019-05-30T01:45:58.023Z,1010.44
2019-05-30T01:46:58.124Z,1010.44
2019-05-30T01:47:58.165Z,1010.46
2019-05-30T01:48:58.074Z,1010.46
2019-05-30T01:49:58.140Z,1010.46
2019-05-30T01:50:58.203Z,1010.43
2019-05-30T01:51:58.247Z,1010.46
2019-05-30T01:52:56.863Z,1010.45
2019-05-30T01:53:56.842Z,1010.44
2019-05-30T01:54:56.819Z,1010.45
2019-05-30T01:55:56.798Z,1010.46
2019-05-30T01:56:56.778Z,1010.41
2019-05-30T01:57:56.756Z,1010.44
2019-05-30T01:58:56.734Z,1010.39
2019-05-30T01:59:56.714Z,1010.43
2019-05-30T02:00:56.691Z,1010.41
2019-05-30T02:01:56.672Z,1010.39
2019-05-30T02:02:56.650Z,1010.38
2019-05-30T02:03:56.629Z,1010.35
2019-05-30T02:04:56.608Z,1010.34
2019-05-30T02:05:56.586Z,1010.36
2019-05-30T02:06:56.565Z,1010.35
2019-05-30T02:07:56.544Z,1010.34
2019-05-30T02:08:56.527Z,1010.3
2019-05-30T02:09:56.510Z,1010.32
2019-05-30T02:10:56.480Z,1010.31
2019-05-30T02:11:56.478Z,1010.31
2019-05-30T02:12:56.439Z,1010.29
2019-05-30T02:13:56.415Z,1010.33
2019-05-30T02:14:56.403Z,1010.35
2019-05-30T02:15:56.374Z,1010.29
2019-05-30T02:16:56.353Z,1010.31
2019-05-30T02:17:56.333Z,1010.3
2019-05-30T02:18:56.312Z,1010.3
2019-05-30T02:19:56.290Z,1010.29
2019-05-30T02:20:56.270Z,1010.3
2019-05-30T02:21:56.256Z,1010.3
2019-05-30T02:22:56.231Z,1010.29
2019-05-30T02:23:56.205Z,1010.3
2019-05-30T02:24:56.182Z,1010.3
2019-05-30T02:25:56.161Z,1010.26
2019-05-30T02:26:56.139Z,1010.33
2019-05-30T02:27:56.120Z,1010.32
2019-05-30T02:28:56.097Z,1010.24
2019-05-30T02:29:56.076Z,1010.29
2019-05-30T02:30:56.056Z,1010.29
2019-05-30T02:31:56.035Z,1010.29
2019-05-30T02:32:56.013Z,1010.31
2019-05-30T02:33:55.992Z,1010.33
2019-05-30T02:34:55.971Z,1010.32
2019-05-30T02:35:55.953Z,1010.32
2019-05-30T02:36:55.937Z,1010.36
2019-05-30T02:37:55.908Z,1010.36
2019-05-30T02:38:55.886Z,1010.36
2019-05-30T02:40:00.166Z,1010.31
2019-05-30T02:40:55.846Z,1010.38
2019-05-30T02:41:55.824Z,1010.39
2019-05-30T02:42:55.804Z,1010.44
2019-05-30T02:43:55.781Z,1010.4
2019-05-30T02:44:55.762Z,1010.43
2019-05-30T02:45:55.739Z,1010.43
2019-05-30T02:46:55.719Z,1010.43
2019-05-30T02:47:55.699Z,1010.48
2019-05-30T02:48:59.152Z,1010.44
2019-05-30T02:49:55.653Z,1010.49
2019-05-30T02:50:55.632Z,1010.48
2019-05-30T02:51:55.611Z,1010.47
2019-05-30T02:52:55.592Z,1010.46
2019-05-30T02:53:55.571Z,1010.44
2019-05-30T02:54:55.551Z,1010.47
2019-05-30T02:55:55.527Z,1010.45
2019-05-30T02:56:55.508Z,1010.45
2019-05-30T02:57:55.499Z,1010.51
2019-05-30T02:58:55.466Z,1010.44
2019-05-30T02:59:55.446Z,1010.46
2019-05-30T03:00:55.424Z,1010.46
2019-05-30T03:02:01.466Z,1010.49
2019-05-30T03:02:55.383Z,1010.45
2019-05-30T03:03:55.362Z,1010.48
2019-05-30T03:04:55.338Z,1010.51
2019-05-30T03:05:55.343Z,1010.51
2019-05-30T03:06:55.300Z,1010.51
2019-05-30T03:07:55.276Z,1010.53
2019-05-30T03:08:55.255Z,1010.52
2019-05-30T03:09:55.236Z,1010.48
2019-05-30T03:10:55.214Z,1010.51
2019-05-30T03:11:55.191Z,1010.54
2019-05-30T03:12:55.169Z,1010.58
2019-05-30T03:13:55.147Z,1010.55
2019-05-30T03:14:55.129Z,1010.56
2019-05-30T03:15:55.106Z,1010.55
2019-05-30T03:16:55.089Z,1010.52
2019-05-30T03:17:55.064Z,1010.57
2019-05-30T03:18:55.042Z,1010.55
2019-05-30T03:19:55.021Z,1010.54
2019-05-30T03:20:54.999Z,1010.55
2019-05-30T03:21:54.979Z,1010.54
2019-05-30T03:22:54.958Z,1010.56
2019-05-30T03:23:54.942Z,1010.55
2019-05-30T03:24:54.918Z,1010.5
2019-05-30T03:25:54.895Z,1010.5
2019-05-30T03:26:54.872Z,1010.51
2019-05-30T03:27:54.853Z,1010.47
2019-05-30T03:28:54.831Z,1010.49
2019-05-30T03:29:54.812Z,1010.41
2019-05-30T03:30:54.790Z,1010.42
2019-05-30T03:31:54.807Z,1010.49
2019-05-30T03:33:39.925Z,1010.5
2019-05-30T03:34:31.816Z,1010.48
2019-05-30T03:35:40.870Z,1010.51
2019-05-30T03:36:32.230Z,1010.5
2019-05-30T03:37:31.757Z,1010.48
2019-05-30T03:38:31.738Z,1010.51
2019-05-30T03:39:31.710Z,1010.52
2019-05-30T03:40:31.998Z,1010.57
2019-05-30T03:41:31.666Z,1010.57
2019-05-30T03:42:31.648Z,1010.54
2019-05-30T03:43:31.627Z,1010.52
2019-05-30T03:44:31.605Z,1010.55
2019-05-30T03:45:31.583Z,1010.6
2019-05-30T03:46:31.562Z,1010.58
2019-05-30T03:47:31.542Z,1010.52
2019-05-30T03:48:31.520Z,1010.58
2019-05-30T03:49:31.498Z,1010.56
2019-05-30T03:50:31.539Z,1010.57
2019-05-30T03:51:31.457Z,1010.56
2019-05-30T03:52:31.445Z,1010.54
2019-05-30T03:53:31.418Z,1010.58
2019-05-30T03:54:31.404Z,1010.55
2019-05-30T03:55:31.373Z,1010.55
2019-05-30T03:56:31.352Z,1010.58
2019-05-30T03:57:31.330Z,1010.6
2019-05-30T03:58:31.311Z,1010.62
2019-05-30T03:59:31.287Z,1010.61
2019-05-30T04:00:31.269Z,1010.59
2019-05-30T04:01:31.247Z,1010.6
2019-05-30T04:02:31.233Z,1010.55
2019-05-30T04:03:31.205Z,1010.56
2019-05-30T04:04:31.186Z,1010.58
2019-05-30T04:05:31.165Z,1010.56
2019-05-30T04:06:31.147Z,1010.55
2019-05-30T04:07:31.122Z,1010.53
2019-05-30T04:08:31.101Z,1010.57
2019-05-30T04:09:31.085Z,1010.56
2019-05-30T04:10:31.061Z,1010.59
2019-05-30T04:11:31.070Z,1010.56
2019-05-30T04:12:31.020Z,1010.57
2019-05-30T04:13:31.001Z,1010.6
2019-05-30T04:14:30.978Z,1010.61
2019-05-30T04:15:30.960Z,1010.61
2019-05-30T04:16:30.936Z,1010.62
2019-05-30T04:17:30.916Z,1010.63
2019-05-30T04:18:30.899Z,1010.61
2019-05-30T04:19:30.876Z,1010.6
2019-05-30T04:20:30.854Z,1010.63
2019-05-30T04:21:30.832Z,1010.64
2019-05-30T04:22:30.813Z,1010.66
2019-05-30T04:23:30.791Z,1010.71
2019-05-30T04:24:30.772Z,1010.7
2019-05-30T04:25:30.751Z,1010.71
2019-05-30T04:26:30.730Z,1010.69
2019-05-30T04:27:30.709Z,1010.69
2019-05-30T04:28:30.700Z,1010.69
2019-05-30T04:29:30.669Z,1010.72
2019-05-30T04:30:30.652Z,1010.76
2019-05-30T04:31:30.630Z,1010.73
2019-05-30T04:32:30.608Z,1010.76
2019-05-30T04:33:33.342Z,1010.78
2019-05-30T04:34:30.567Z,1010.77
2019-05-30T04:35:30.548Z,1010.75
2019-05-30T04:36:30.808Z,1010.76
2019-05-30T04:37:30.792Z,1010.75
2019-05-30T04:38:30.486Z,1010.8
2019-05-30T04:39:30.663Z,1010.77
2019-05-30T04:40:30.445Z,1010.76
2019-05-30T04:41:30.425Z,1010.7
2019-05-30T04:42:30.404Z,1010.73
2019-05-30T04:43:30.382Z,1010.71
2019-05-30T04:44:30.363Z,1010.73
2019-05-30T04:45:30.341Z,1010.74
2019-05-30T04:46:30.324Z,1010.69
2019-05-30T04:47:30.300Z,1010.68
2019-05-30T04:48:30.281Z,1010.73
2019-05-30T04:49:30.261Z,1010.7
2019-05-30T04:50:30.257Z,1010.69
2019-05-30T04:51:30.218Z,1010.67
2019-05-30T04:52:30.199Z,1010.65
2019-05-30T04:53:30.178Z,1010.62
2019-05-30T04:54:30.160Z,1010.67
2019-05-30T04:55:30.140Z,1010.69
2019-05-30T04:56:30.118Z,1010.7
2019-05-30T04:57:30.100Z,1010.69
2019-05-30T04:58:30.080Z,1010.7
2019-05-30T04:59:30.059Z,1010.7
2019-05-30T05:00:30.036Z,1010.74
2019-05-30T05:01:30.021Z,1010.71
2019-05-30T05:02:29.999Z,1010.7
2019-05-30T05:03:44.875Z,1010.73
2019-05-30T05:04:29.959Z,1010.72
2019-05-30T05:05:29.956Z,1010.74
2019-05-30T05:06:29.931Z,1010.75
2019-05-30T05:07:30.289Z,1010.74
2019-05-30T05:08:29.878Z,1010.75
2019-05-30T05:09:29.860Z,1010.75
2019-05-30T05:10:29.840Z,1010.73
2019-05-30T05:11:29.825Z,1010.73
2019-05-30T05:12:29.800Z,1010.74
2019-05-30T05:13:29.781Z,1010.74
2019-05-30T05:14:29.761Z,1010.72
2019-05-30T05:15:29.741Z,1010.72
2019-05-30T05:16:35.218Z,1010.75
2019-05-30T05:17:29.702Z,1010.73
2019-05-30T05:18:29.682Z,1010.74
2019-05-30T05:19:29.662Z,1010.75
2019-05-30T05:20:29.648Z,1010.72
2019-05-30T05:21:29.624Z,1010.76
2019-05-30T05:22:29.603Z,1010.76
2019-05-30T05:23:29.586Z,1010.73
2019-05-30T05:24:29.565Z,1010.77
2019-05-30T05:25:29.544Z,1010.76
2019-05-30T05:26:29.527Z,1010.75
2019-05-30T05:27:29.513Z,1010.79
2019-05-30T05:28:29.489Z,1010.79
2019-05-30T05:29:29.470Z,1010.78
2019-05-30T05:30:29.452Z,1010.79
2019-05-30T05:31:29.432Z,1010.77
2019-05-30T05:32:29.414Z,1010.76
2019-05-30T05:33:29.393Z,1010.76
2019-05-30T05:34:29.376Z,1010.78
2019-05-30T05:35:29.357Z,1010.81
2019-05-30T05:36:29.336Z,1010.77
2019-05-30T05:37:29.317Z,1010.82
2019-05-30T05:38:29.301Z,1010.84
2019-05-30T05:39:29.281Z,1010.76
2019-05-30T05:40:29.259Z,1010.77
2019-05-30T05:41:29.245Z,1010.79
2019-05-30T05:42:30.253Z,1010.74
2019-05-30T05:43:29.204Z,1010.77
2019-05-30T05:44:29.194Z,1010.77
2019-05-30T05:45:29.166Z,1010.8
2019-05-30T05:46:29.148Z,1010.77
2019-05-30T05:47:29.129Z,1010.73
2019-05-30T05:48:29.108Z,1010.8
2019-05-30T05:49:29.091Z,1010.75
2019-05-30T05:50:29.078Z,1010.76
2019-05-30T05:51:29.138Z,1010.72
2019-05-30T05:52:29.175Z,1010.76
2019-05-30T05:53:29.083Z,1010.73
2019-05-30T05:54:29.294Z,1010.77
2019-05-30T05:55:29.208Z,1010.8
2019-05-30T05:56:29.174Z,1010.82
2019-05-30T05:57:29.148Z,1010.8
2019-05-30T05:58:29.308Z,1010.85
2019-05-30T05:59:29.268Z,1010.78
2019-05-30T06:00:29.535Z,1010.81
2019-05-30T06:01:30.067Z,1010.86
2019-05-30T06:02:28.851Z,1010.84
2019-05-30T06:03:28.833Z,1010.82
2019-05-30T06:04:28.815Z,1010.88
2019-05-30T06:05:28.799Z,1010.84
2019-05-30T06:06:31.492Z,1010.89
2019-05-30T06:07:28.762Z,1010.93
2019-05-30T06:08:28.754Z,1010.96
2019-05-30T06:09:28.838Z,1010.95
2019-05-30T06:10:28.709Z,1010.96
2019-05-30T06:11:28.929Z,1010.98
2019-05-30T06:12:28.672Z,1010.88
2019-05-30T06:13:29.043Z,1010.93
2019-05-30T06:14:28.638Z,1010.91
2019-05-30T06:15:29.035Z,1010.95
2019-05-30T06:16:28.602Z,1010.94
2019-05-30T06:17:29.300Z,1010.93
2019-05-30T06:18:28.567Z,1010.94
2019-05-30T06:19:43.162Z,1010.92
2019-05-30T06:20:28.534Z,1010.91
2019-05-30T06:21:28.512Z,1010.92
2019-05-30T06:22:28.501Z,1010.9
2019-05-30T06:23:28.482Z,1010.89
2019-05-30T06:24:28.460Z,1010.89
2019-05-30T06:25:32.421Z,1010.91
2019-05-30T06:26:28.427Z,1010.9
2019-05-30T06:27:28.410Z,1010.91
2019-05-30T06:28:28.393Z,1010.92
2019-05-30T06:29:28.458Z,1010.92
2019-05-30T06:30:28.750Z,1010.98
2019-05-30T06:31:28.676Z,1010.98
2019-05-30T06:32:28.856Z,1010.96
2019-05-30T06:33:29.125Z,1010.96
2019-05-30T06:34:38.254Z,1010.95
2019-05-30T06:35:29.468Z,1010.91
2019-05-30T06:36:29.294Z,1011
2019-05-30T06:37:29.273Z,1011
2019-05-30T06:38:29.406Z,1011.01
2019-05-30T06:39:29.554Z,1011.01
2019-05-30T06:40:30.780Z,1010.96
2019-05-30T06:41:28.171Z,1010.95
2019-05-30T06:42:28.324Z,1011.06
2019-05-30T06:43:28.273Z,1011.05
2019-05-30T06:44:28.168Z,1011.01
2019-05-30T06:45:28.361Z,1011.09
2019-05-30T06:46:28.404Z,1011.05
2019-05-30T06:47:28.442Z,1010.97
2019-05-30T06:48:28.766Z,1011.09
2019-05-30T06:49:28.996Z,1011.08
2019-05-30T06:50:29.150Z,1011.06
2019-05-30T06:51:29.073Z,1011.03
2019-05-30T06:52:29.087Z,1011.07
2019-05-30T06:53:29.236Z,1011.08
2019-05-30T06:54:29.390Z,1011.01
2019-05-30T06:55:29.156Z,1011.06
2019-05-30T06:56:27.910Z,1011.07
2019-05-30T06:57:27.891Z,1011.08
2019-05-30T06:58:41.246Z,1011.04
2019-05-30T06:59:28.123Z,1011.06
2019-05-30T07:00:28.140Z,1011.07
2019-05-30T07:01:27.973Z,1011.09
2019-05-30T07:02:28.370Z,1011.07
2019-05-30T07:03:28.473Z,1011.05
2019-05-30T07:04:29.689Z,1010.99
2019-05-30T07:05:29.853Z,1011.05
2019-05-30T07:06:29.252Z,1010.97
2019-05-30T07:07:28.880Z,1011.02
2019-05-30T07:08:28.846Z,1011
2019-05-30T07:09:29.002Z,1011.02
2019-05-30T07:10:28.769Z,1011.04
2019-05-30T07:11:29.284Z,1011
2019-05-30T07:12:27.625Z,1011
2019-05-30T07:13:27.617Z,1011.05
2019-05-30T07:14:27.590Z,1011.04
2019-05-30T07:15:27.573Z,1011.03
2019-05-30T07:16:27.558Z,1011.06
2019-05-30T07:17:27.546Z,1011.05
2019-05-30T07:18:29.610Z,1011.06
2019-05-30T07:19:27.504Z,1011.06
2019-05-30T07:20:27.539Z,1011.09
2019-05-30T07:21:27.673Z,1011.09
2019-05-30T07:22:27.717Z,1011.16
2019-05-30T07:23:27.839Z,1011.14
2019-05-30T07:24:27.743Z,1011.21
2019-05-30T07:25:27.852Z,1011.14
2019-05-30T07:26:27.698Z,1011.1
2019-05-30T07:27:27.806Z,1011.13
2019-05-30T07:28:27.864Z,1011.17
2019-05-30T07:29:27.966Z,1011.22
2019-05-30T07:30:27.898Z,1011.21
2019-05-30T07:31:28.048Z,1011.27
2019-05-30T07:32:27.918Z,1011.37
2019-05-30T07:33:28.014Z,1011.31
2019-05-30T07:34:28.093Z,1011.27
2019-05-30T07:35:27.938Z,1011.37
2019-05-30T07:36:28.177Z,1011.28
2019-05-30T07:37:28.183Z,1011.39
2019-05-30T07:38:28.320Z,1011.4
2019-05-30T07:39:29.679Z,1011.38
2019-05-30T07:40:27.164Z,1011.39
2019-05-30T07:41:27.195Z,1011.42
2019-05-30T07:42:27.132Z,1011.4
2019-05-30T07:43:28.613Z,1011.43
2019-05-30T07:44:27.099Z,1011.42
2019-05-30T07:45:27.087Z,1011.48
2019-05-30T07:46:27.067Z,1011.55
2019-05-30T07:47:28.068Z,1011.48
2019-05-30T07:48:28.056Z,1011.48
2019-05-30T07:49:28.045Z,1011.52
2019-05-30T07:50:28.259Z,1011.52
2019-05-30T07:51:26.991Z,1011.57
2019-05-30T07:52:26.971Z,1011.63
2019-05-30T07:53:26.953Z,1011.49
2019-05-30T07:54:26.939Z,1011.61
2019-05-30T07:55:26.969Z,1011.58
2019-05-30T07:56:26.995Z,1011.51
2019-05-30T07:57:27.884Z,1011.52
2019-05-30T07:58:27.040Z,1011.48
2019-05-30T07:59:27.095Z,1011.52
2019-05-30T08:00:27.393Z,1011.51
2019-05-30T08:01:26.824Z,1011.5
2019-05-30T08:02:27.479Z,1011.52
2019-05-30T08:03:26.792Z,1011.56
2019-05-30T08:04:27.407Z,1011.53
2019-05-30T08:05:26.840Z,1011.57
2019-05-30T08:06:27.446Z,1011.53
2019-05-30T08:07:26.731Z,1011.51
2019-05-30T08:08:28.032Z,1011.51
2019-05-30T08:09:26.937Z,1011.52
2019-05-30T08:10:27.717Z,1011.54
2019-05-30T08:11:26.822Z,1011.53
2019-05-30T08:12:27.935Z,1011.54
2019-05-30T08:13:26.954Z,1011.55
2019-05-30T08:14:26.965Z,1011.65
2019-05-30T08:15:27.257Z,1011.58
2019-05-30T08:16:27.059Z,1011.72
2019-05-30T08:17:27.303Z,1011.57
2019-05-30T08:18:27.499Z,1011.54
2019-05-30T08:19:27.697Z,1011.61
2019-05-30T08:20:27.601Z,1011.57
2019-05-30T08:21:27.740Z,1011.56
2019-05-30T08:22:27.860Z,1011.54
2019-05-30T08:23:26.494Z,1011.64
2019-05-30T08:24:26.481Z,1011.61
2019-05-30T08:25:26.464Z,1011.58
2019-05-30T08:26:26.452Z,1011.59
2019-05-30T08:27:26.439Z,1011.6
2019-05-30T08:28:26.435Z,1011.56
2019-05-30T08:29:26.446Z,1011.61
2019-05-30T08:30:26.694Z,1011.64
2019-05-30T08:31:26.384Z,1011.67
2019-05-30T08:32:26.365Z,1011.61
2019-05-30T08:33:26.352Z,1011.62
2019-05-30T08:34:26.340Z,1011.58
2019-05-30T08:35:38.886Z,1011.63
2019-05-30T08:36:26.311Z,1011.63
2019-05-30T08:37:26.296Z,1011.52
2019-05-30T08:38:26.283Z,1011.58
2019-05-30T08:39:26.267Z,1011.54
2019-05-30T08:40:26.254Z,1011.51
2019-05-30T08:41:26.241Z,1011.53
2019-05-30T08:42:27.937Z,1011.56
2019-05-30T08:43:26.212Z,1011.58
2019-05-30T08:44:26.198Z,1011.56
2019-05-30T08:45:26.187Z,1011.54
2019-05-30T08:46:26.175Z,1011.57
2019-05-30T08:47:26.158Z,1011.45
2019-05-30T08:48:26.146Z,1011.6
2019-05-30T08:49:26.130Z,1011.48
2019-05-30T08:50:26.118Z,1011.47
2019-05-30T08:51:26.182Z,1011.55
2019-05-30T08:52:26.090Z,1011.53
2019-05-30T08:53:26.085Z,1011.49
2019-05-30T08:54:26.061Z,1011.47
2019-05-30T08:55:26.048Z,1011.44
2019-05-30T08:56:28.408Z,1011.44
2019-05-30T08:57:26.020Z,1011.44
2019-05-30T08:58:26.004Z,1011.44
2019-05-30T08:59:25.991Z,1011.35
2019-05-30T09:00:25.977Z,1011.36
2019-05-30T09:01:25.964Z,1011.39
2019-05-30T09:02:25.950Z,1011.34
2019-05-30T09:03:25.938Z,1011.26
2019-05-30T09:04:25.920Z,1011.31
2019-05-30T09:05:25.907Z,1011.33
2019-05-30T09:06:25.893Z,1011.35
2019-05-30T09:07:25.881Z,1011.34
2019-05-30T09:08:25.868Z,1011.29
2019-05-30T09:09:25.860Z,1011.3
2019-05-30T09:10:25.842Z,1011.34
2019-05-30T09:11:25.832Z,1011.37
2019-05-30T09:12:25.817Z,1011.35
2019-05-30T09:13:25.803Z,1011.28
2019-05-30T09:14:25.794Z,1011.29
2019-05-30T09:15:25.782Z,1011.26
2019-05-30T09:16:25.767Z,1011.26
2019-05-30T09:17:25.754Z,1011.25
2019-05-30T09:18:25.743Z,1011.26
2019-05-30T09:19:25.730Z,1011.29
2019-05-30T09:20:25.720Z,1011.29
2019-05-30T09:21:25.870Z,1011.24
2019-05-30T09:22:25.696Z,1011.24
2019-05-30T09:23:25.688Z,1011.25
2019-05-30T09:24:25.688Z,1011.35
2019-05-30T09:25:25.660Z,1011.32
2019-05-30T09:26:25.650Z,1011.29
2019-05-30T09:27:25.635Z,1011.33
2019-05-30T09:28:25.625Z,1011.29
2019-05-30T09:29:25.614Z,1011.25
2019-05-30T09:30:25.603Z,1011.32
2019-05-30T09:31:25.593Z,1011.32
2019-05-30T09:32:25.580Z,1011.24
2019-05-30T09:33:25.694Z,1011.34
2019-05-30T09:34:25.575Z,1011.34
2019-05-30T09:35:25.548Z,1011.31
2019-05-30T09:36:25.536Z,1011.28
2019-05-30T09:37:25.530Z,1011.32
2019-05-30T09:38:25.514Z,1011.26
2019-05-30T09:39:25.504Z,1011.33
2019-05-30T09:40:25.498Z,1011.3
2019-05-30T09:41:25.482Z,1011.27
2019-05-30T09:42:25.469Z,1011.33
2019-05-30T09:43:25.457Z,1011.32
2019-05-30T09:44:25.450Z,1011.38
2019-05-30T09:45:25.436Z,1011.37
2019-05-30T09:46:25.428Z,1011.52
2019-05-30T09:47:25.412Z,1011.43
2019-05-30T09:48:25.402Z,1011.53
2019-05-30T09:49:25.389Z,1011.48
2019-05-30T09:50:25.379Z,1011.54
2019-05-30T09:51:25.369Z,1011.59
2019-05-30T09:52:25.353Z,1011.58
2019-05-30T09:53:25.341Z,1011.63
2019-05-30T09:54:25.343Z,1011.63
2019-05-30T09:55:25.320Z,1011.66
2019-05-30T09:56:25.305Z,1011.67
2019-05-30T09:57:25.300Z,1011.68
2019-05-30T09:58:25.280Z,1011.74
2019-05-30T09:59:25.269Z,1011.68
2019-05-30T10:00:25.539Z,1011.65
2019-05-30T10:01:25.243Z,1011.6
2019-05-30T10:02:25.229Z,1011.8
2019-05-30T10:03:25.215Z,1011.69
2019-05-30T10:04:25.233Z,1011.64
2019-05-30T10:05:25.201Z,1011.63
2019-05-30T10:06:29.290Z,1011.76
2019-05-30T10:07:25.161Z,1011.69
2019-05-30T10:08:25.151Z,1011.61
2019-05-30T10:09:25.138Z,1011.67
2019-05-30T10:10:25.121Z,1011.7
2019-05-30T10:11:25.164Z,1011.59
2019-05-30T10:12:25.095Z,1011.61
2019-05-30T10:13:25.082Z,1011.65
2019-05-30T10:14:25.069Z,1011.61
2019-05-30T10:15:25.059Z,1011.55
2019-05-30T10:16:25.047Z,1011.51
2019-05-30T10:17:25.032Z,1011.53
2019-05-30T10:18:25.035Z,1011.5
2019-05-30T10:19:25.011Z,1011.49
2019-05-30T10:20:24.994Z,1011.51
2019-05-30T10:21:24.985Z,1011.5
2019-05-30T10:22:24.969Z,1011.59
2019-05-30T10:23:24.960Z,1011.52
2019-05-30T10:24:24.946Z,1011.53
2019-05-30T10:25:24.941Z,1011.49
2019-05-30T10:26:24.922Z,1011.48
2019-05-30T10:27:24.909Z,1011.49
2019-05-30T10:28:24.899Z,1011.46
2019-05-30T10:29:24.890Z,1011.48
2019-05-30T10:30:24.877Z,1011.48
2019-05-30T10:31:24.866Z,1011.55
2019-05-30T10:32:24.852Z,1011.51
2019-05-30T10:33:24.843Z,1011.56
2019-05-30T10:34:24.832Z,1011.59
2019-05-30T10:35:24.821Z,1011.59
2019-05-30T10:36:24.809Z,1011.65
2019-05-30T10:37:24.798Z,1011.52
2019-05-30T10:38:24.784Z,1011.65
2019-05-30T10:39:24.773Z,1011.66
2019-05-30T10:40:24.760Z,1011.69
2019-05-30T10:41:24.747Z,1011.75
2019-05-30T10:42:24.737Z,1011.76
2019-05-30T10:43:24.721Z,1011.82
2019-05-30T10:44:24.710Z,1011.77
2019-05-30T10:45:24.696Z,1011.74
2019-05-30T10:46:24.684Z,1011.84
2019-05-30T10:47:24.671Z,1011.85
2019-05-30T10:48:24.659Z,1011.8
2019-05-30T10:49:33.993Z,1011.78
2019-05-30T10:50:24.631Z,1011.77
2019-05-30T10:51:24.617Z,1011.71
2019-05-30T10:52:24.603Z,1011.7
2019-05-30T10:53:24.668Z,1011.73
2019-05-30T10:54:24.575Z,1011.73
2019-05-30T10:55:24.565Z,1011.74
2019-05-30T10:56:24.550Z,1011.73
2019-05-30T10:57:24.535Z,1011.8
2019-05-30T10:58:24.521Z,1011.81
2019-05-30T10:59:24.507Z,1011.87
2019-05-30T11:00:24.496Z,1011.84
2019-05-30T11:01:24.483Z,1011.86
2019-05-30T11:02:24.467Z,1011.79
2019-05-30T11:03:24.458Z,1011.86
2019-05-30T11:04:24.442Z,1011.88
2019-05-30T11:05:24.429Z,1011.9
2019-05-30T11:06:24.411Z,1011.85
2019-05-30T11:07:24.398Z,1011.86
2019-05-30T11:08:24.384Z,1011.92
2019-05-30T11:09:24.370Z,1011.9
2019-05-30T11:10:24.357Z,1012.04
2019-05-30T11:11:24.345Z,1011.97
2019-05-30T11:12:24.330Z,1012.09
2019-05-30T11:13:24.316Z,1012
2019-05-30T11:14:24.302Z,1012.03
2019-05-30T11:15:24.290Z,1012.13
2019-05-30T11:16:24.274Z,1012.1
2019-05-30T11:17:24.260Z,1012.12
2019-05-30T11:18:24.245Z,1012.08
2019-05-30T11:19:24.233Z,1012.05
2019-05-30T11:20:24.216Z,1012.03
2019-05-30T11:21:24.201Z,1012.01
2019-05-30T11:22:24.211Z,1011.96
2019-05-30T11:23:24.171Z,1011.99
2019-05-30T11:24:24.158Z,1012
2019-05-30T11:25:24.143Z,1011.99
2019-05-30T11:26:24.128Z,1011.98
2019-05-30T11:27:24.113Z,1012.03
2019-05-30T11:28:24.103Z,1011.91
2019-05-30T11:29:24.084Z,1011.96
2019-05-30T11:30:24.076Z,1012
2019-05-30T11:31:24.057Z,1012.05
2019-05-30T11:32:24.042Z,1012.01
2019-05-30T11:33:24.026Z,1011.92
2019-05-30T11:34:24.013Z,1012.06
2019-05-30T11:35:24.026Z,1012.01
2019-05-30T11:36:24.055Z,1012.04
2019-05-30T11:37:23.966Z,1012.04
2019-05-30T11:38:23.952Z,1012.06
2019-05-30T11:39:23.947Z,1012.06
2019-05-30T11:40:23.927Z,1012.05
2019-05-30T11:41:23.918Z,1012.16
2019-05-30T11:42:23.893Z,1012.07
2019-05-30T11:43:23.880Z,1012.11
2019-05-30T11:44:23.865Z,1012.1
2019-05-30T11:45:23.850Z,1012.11
2019-05-30T11:46:23.836Z,1012.12
2019-05-30T11:47:23.821Z,1012.17
2019-05-30T11:48:23.807Z,1012.1
2019-05-30T11:49:23.793Z,1012.1
2019-05-30T11:50:23.779Z,1012.12
2019-05-30T11:51:23.763Z,1012.13
2019-05-30T11:52:23.750Z,1012.03
2019-05-30T11:53:23.737Z,1012.1
2019-05-30T11:54:23.719Z,1012.11
2019-05-30T11:55:23.709Z,1012.1
2019-05-30T11:56:23.708Z,1012.14
2019-05-30T11:57:23.676Z,1012.13
2019-05-30T11:58:23.664Z,1012.16
2019-05-30T11:59:23.651Z,1012.1
2019-05-30T12:00:23.632Z,1012.11
2019-05-30T12:01:23.620Z,1012.1
2019-05-30T12:02:23.606Z,1012.09
2019-05-30T12:03:23.594Z,1012.13
2019-05-30T12:04:23.611Z,1012.2
2019-05-30T12:05:23.616Z,1012.22
2019-05-30T12:06:23.621Z,1012.18
2019-05-30T12:07:35.675Z,1012.15
2019-05-30T12:08:23.523Z,1012.18